Time;durP1;ratioP1;P1;durP2;ratioP2;P2;SDS_P1;SDS_P2;PMS_P1;PMS_P2;Temp;Humidity;BMP_temperature;BMP_pressure;BME280_temperature;BME280_humidity;BME280_pressure;Samples;Min_cycle;Max_cycle;Signal;HPM_P1;HPM_P2
2023/05/29 00:02:13;;;;;;;7.47;3.47;;;13.10;1.00;;;;;;6120000;23;20242;-79
2023/05/29 00:04:40;;;;;;;6.00;3.90;;;13.00;1.00;;;;;;6146339;23;20242;-80
2023/05/29 00:07:05;;;;;;;5.75;3.75;;;13.00;1.00;;;;;;6146390;23;20691;-81
2023/05/29 00:09:31;;;;;;;5.10;3.40;;;12.90;1.00;;;;;;6145752;23;20183;-81
2023/05/29 00:11:56;;;;;;;7.07;3.67;;;12.80;1.00;;;;;;6119769;23;20184;-81
2023/05/29 00:14:23;;;;;;;5.80;3.45;;;12.70;1.00;;;;;;6119694;23;20170;-80
2023/05/29 00:16:52;;;;;;;5.88;3.75;;;12.80;1.00;;;;;;6146213;23;20186;-80
2023/05/29 00:19:19;;;;;;;5.05;3.58;;;13.30;1.00;;;;;;6119351;23;20190;-80
2023/05/29 00:21:47;;;;;;;5.80;3.65;;;12.60;1.00;;;;;;6145801;23;20159;-80
2023/05/29 00:24:16;;;;;;;7.07;3.72;;;12.60;1.00;;;;;;6145720;23;20156;-80
2023/05/29 00:26:43;;;;;;;5.82;3.63;;;12.50;1.00;;;;;;6146065;23;20483;-79
2023/05/29 00:29:09;;;;;;;6.13;4.00;;;12.40;1.00;;;;;;6119849;23;20226;-79
2023/05/29 00:31:36;;;;;;;5.38;3.70;;;12.30;1.00;;;;;;6145432;23;20191;-80
2023/05/29 00:34:02;;;;;;;5.78;4.20;;;12.20;1.00;;;;;;6145920;23;20152;-81
2023/05/29 00:36:28;;;;;;;4.65;3.45;;;12.10;1.00;;;;;;6119226;23;20206;-80
2023/05/29 00:38:54;;;;;;;9.10;3.90;;;12.10;1.00;;;;;;6119448;23;20497;-80
2023/05/29 00:41:20;;;;;;;6.78;3.55;;;12.10;1.00;;;;;;6119821;23;20181;-79
2023/05/29 00:43:45;;;;;;;6.25;3.72;;;12.10;1.00;;;;;;6145774;23;20405;-80
2023/05/29 00:46:13;;;;;;;5.78;3.30;;;11.90;1.00;;;;;;6119543;23;20159;-79
2023/05/29 00:48:41;;;;;;;6.10;3.80;;;12.60;1.00;;;;;;6119139;23;20503;-79
2023/05/29 00:51:06;;;;;;;7.20;3.80;;;12.10;1.00;;;;;;6119252;23;20179;-81
2023/05/29 00:53:32;;;;;;;5.32;3.78;;;12.10;1.00;;;;;;6119752;23;20222;-80
2023/05/29 00:55:59;;;;;;;5.18;3.53;;;12.00;1.00;;;;;;6119351;23;20203;-79
2023/05/29 00:58:25;;;;;;;5.80;3.30;;;12.00;1.00;;;;;;6119587;23;20670;-80
2023/05/29 01:00:52;;;;;;;6.50;3.40;;;12.10;1.00;;;;;;6145820;23;20254;-79
2023/05/29 01:03:18;;;;;;;5.32;4.07;;;12.10;1.00;;;;;;6119294;23;20223;-80
2023/05/29 01:05:46;;;;;;;5.35;3.40;;;12.20;1.00;;;;;;6119600;23;20171;-80
2023/05/29 01:08:12;;;;;;;6.60;3.45;;;12.20;1.00;;;;;;6119173;23;20191;-80
2023/05/29 01:10:38;;;;;;;3.58;3.20;;;12.20;1.00;;;;;;6145490;23;20187;-80
2023/05/29 01:13:09;;;;;;;3.50;3.20;;;12.20;1.00;;;;;;6119462;23;20188;-80
2023/05/29 01:15:51;;;;;;;5.90;2.95;;;12.20;1.00;;;;;;6119858;23;20477;-81
2023/05/29 01:18:20;;;;;;;6.07;3.50;;;12.10;1.00;;;;;;6145461;23;20465;-80
2023/05/29 01:20:54;;;;;;;6.85;4.13;;;12.10;1.00;;;;;;6119490;23;20215;-80
2023/05/29 01:23:46;;;;;;;4.93;3.70;;;12.00;1.00;;;;;;6145327;23;20555;-79
2023/05/29 01:26:33;;;;;;;4.63;3.67;;;12.00;1.00;;;;;;6145712;23;20625;-82
2023/05/29 01:29:02;;;;;;;5.90;3.65;;;11.90;1.00;;;;;;6145488;23;20490;-80
2023/05/29 01:31:29;;;;;;;6.00;3.65;;;11.80;1.00;;;;;;6145783;23;20159;-82
2023/05/29 01:33:58;;;;;;;5.38;3.58;;;11.70;1.00;;;;;;6119211;23;20164;-80
2023/05/29 01:36:24;;;;;;;6.97;3.78;;;11.60;1.00;;;;;;6119160;23;20750;-82
2023/05/29 01:38:51;;;;;;;6.40;3.60;;;11.50;1.00;;;;;;6119282;23;20219;-79
2023/05/29 01:41:18;;;;;;;6.18;3.47;;;11.50;1.00;;;;;;6118782;23;20184;-79
2023/05/29 01:43:46;;;;;;;5.00;3.38;;;11.40;1.00;;;;;;6119225;23;20590;-79
2023/05/29 01:46:13;;;;;;;5.50;3.70;;;11.50;1.00;;;;;;6119098;23;20190;-79
2023/05/29 01:48:41;;;;;;;4.95;3.55;;;11.50;1.00;;;;;;6119342;23;20163;-80
2023/05/29 01:51:07;;;;;;;5.83;3.33;;;11.40;1.00;;;;;;6118874;23;20180;-81
2023/05/29 01:53:32;;;;;;;4.97;3.37;;;11.40;1.00;;;;;;6119070;23;20191;-81
2023/05/29 01:55:58;;;;;;;6.03;3.93;;;11.50;1.00;;;;;;6119027;23;20167;-81
2023/05/29 01:58:26;;;;;;;4.07;3.13;;;12.00;1.00;;;;;;6118829;23;20160;-80
2023/05/29 02:00:52;;;;;;;6.13;3.33;;;11.60;1.00;;;;;;6119202;23;20291;-79
2023/05/29 02:03:17;;;;;;;5.53;3.90;;;11.50;1.00;;;;;;6118786;23;20191;-80
2023/05/29 02:05:43;;;;;;;4.10;3.45;;;11.40;1.00;;;;;;6119136;23;20155;-80
2023/05/29 02:08:08;;;;;;;4.63;3.70;;;11.40;1.00;;;;;;6145065;23;20588;-79
2023/05/29 02:10:34;;;;;;;6.23;3.63;;;11.40;1.00;;;;;;6145323;23;20612;-79
2023/05/29 02:12:59;;;;;;;5.43;3.70;;;11.30;1.00;;;;;;6144960;23;20242;-79
2023/05/29 02:15:25;;;;;;;5.47;4.00;;;11.30;1.00;;;;;;6119672;23;20156;-81
2023/05/29 02:17:51;;;;;;;7.07;4.23;;;11.30;1.00;;;;;;6118975;23;20222;-79
2023/05/29 02:20:17;;;;;;;5.60;3.97;;;11.40;1.00;;;;;;6145096;23;20183;-80
2023/05/29 02:22:43;;;;;;;6.50;3.87;;;11.40;1.00;;;;;;6144989;23;20156;-80
2023/05/29 02:25:08;;;;;;;4.87;3.83;;;11.60;1.00;;;;;;6118896;23;20168;-82
2023/05/29 02:27:34;;;;;;;6.30;4.40;;;11.60;1.00;;;;;;6118936;23;20187;-80
2023/05/29 02:30:00;;;;;;;6.10;4.28;;;11.60;1.00;;;;;;6118691;23;20781;-81
2023/05/29 02:32:27;;;;;;;5.63;3.87;;;11.70;1.00;;;;;;6144978;23;20180;-80
2023/05/29 02:34:54;;;;;;;5.10;4.38;;;11.90;1.00;;;;;;6118811;23;20174;-79
2023/05/29 02:37:19;;;;;;;5.90;4.03;;;11.80;1.00;;;;;;6119046;23;20179;-80
2023/05/29 02:39:45;;;;;;;7.32;4.95;;;11.80;1.00;;;;;;6145201;23;20659;-80
2023/05/29 02:42:10;;;;;;;5.30;4.10;;;11.70;1.00;;;;;;6144731;23;20164;-83
2023/05/29 02:44:36;;;;;;;4.95;4.13;;;11.70;1.00;;;;;;6119206;23;20175;-79
2023/05/29 02:47:01;;;;;;;6.55;4.75;;;11.70;1.00;;;;;;6144874;23;20164;-80
2023/05/29 02:49:27;;;;;;;6.40;4.80;;;11.70;1.00;;;;;;6118582;23;20513;-80
2023/05/29 02:51:56;;;;;;;6.57;4.57;;;11.60;1.00;;;;;;6119010;23;20640;-80
2023/05/29 02:54:23;;;;;;;6.30;4.72;;;11.50;1.00;;;;;;6118595;23;20511;-79
2023/05/29 02:56:50;;;;;;;6.33;4.57;;;11.40;1.00;;;;;;6119133;23;20164;-79
2023/05/29 02:59:15;;;;;;;5.93;4.30;;;11.40;1.00;;;;;;6118465;23;20187;-82
2023/05/29 03:01:42;;;;;;;5.97;4.03;;;11.40;1.00;;;;;;6120520;23;20247;-80
2023/05/29 03:04:12;;;;;;;7.97;5.20;;;11.40;1.00;;;;;;6120379;23;20542;-79
2023/05/29 03:06:37;;;;;;;5.45;4.50;;;11.40;1.00;;;;;;6146977;23;20160;-80
2023/05/29 03:09:04;;;;;;;7.32;5.20;;;11.50;1.00;;;;;;6119958;23;20222;-82
2023/05/29 03:11:31;;;;;;;5.97;4.53;;;11.40;1.00;;;;;;6146907;23;20504;-79
2023/05/29 03:13:56;;;;;;;5.70;4.30;;;11.40;1.00;;;;;;6120695;23;20171;-79
2023/05/29 03:16:22;;;;;;;5.77;4.50;;;11.50;1.00;;;;;;6146720;23;20160;-82
2023/05/29 03:18:48;;;;;;;6.80;4.87;;;11.60;1.00;;;;;;6146146;23;20148;-79
2023/05/29 03:21:13;;;;;;;5.73;4.30;;;11.50;1.00;;;;;;6146650;23;20183;-80
2023/05/29 03:23:39;;;;;;;5.73;4.80;;;11.40;1.00;;;;;;6120434;23;20199;-81
2023/05/29 03:26:05;;;;;;;6.80;4.90;;;11.40;1.00;;;;;;6120534;23;20504;-80
2023/05/29 03:28:31;;;;;;;6.00;4.40;;;11.40;1.00;;;;;;6120517;23;20167;-79
2023/05/29 03:30:57;;;;;;;5.63;4.40;;;11.40;1.00;;;;;;6146949;23;20180;-82
2023/05/29 03:33:23;;;;;;;5.17;4.50;;;11.20;1.00;;;;;;6147038;23;20325;-80
2023/05/29 03:35:48;;;;;;;6.27;4.17;;;11.10;1.00;;;;;;6146757;23;20158;-80
2023/05/29 03:38:14;;;;;;;7.37;4.70;;;11.10;1.00;;;;;;6120631;23;20168;-80
2023/05/29 03:40:39;;;;;;;6.07;4.23;;;11.20;1.00;;;;;;6146170;23;20916;-79
2023/05/29 03:43:05;;;;;;;6.73;4.30;;;11.20;1.00;;;;;;6146531;23;20156;-79
2023/05/29 03:45:31;;;;;;;6.97;4.43;;;11.30;1.00;;;;;;6120182;23;20163;-79
2023/05/29 03:47:56;;;;;;;5.80;4.83;;;11.20;1.00;;;;;;6120700;23;20159;-80
2023/05/29 03:50:22;;;;;;;7.17;4.47;;;11.20;1.00;;;;;;6120075;23;20234;-79
2023/05/29 03:52:47;;;;;;;5.83;4.47;;;11.20;1.00;;;;;;6146490;23;20195;-79
2023/05/29 03:55:14;;;;;;;6.97;4.77;;;11.20;1.00;;;;;;6146486;23;20213;-82
2023/05/29 03:57:40;;;;;;;6.60;4.50;;;11.30;1.00;;;;;;6120332;23;20159;-83
2023/05/29 04:00:11;;;;;;;6.83;3.80;;;11.30;1.00;;;;;;6146610;23;20566;-79
2023/05/29 04:02:38;;;;;;;6.50;3.77;;;11.30;1.00;;;;;;6121011;23;20522;-79
2023/05/29 04:05:06;;;;;;;4.67;3.70;;;11.40;1.00;;;;;;6120282;23;20191;-81
2023/05/29 04:07:32;;;;;;;4.53;3.50;;;11.50;1.00;;;;;;6146639;23;20302;-80
2023/05/29 04:09:58;;;;;;;4.63;3.27;;;11.50;1.00;;;;;;6120311;23;20179;-81
2023/05/29 04:12:23;;;;;;;5.20;3.73;;;11.60;1.00;;;;;;6119520;23;20191;-80
2023/05/29 04:14:49;;;;;;;7.17;3.60;;;11.70;1.00;;;;;;6121026;23;20441;-80
2023/05/29 04:17:14;;;;;;;6.60;3.73;;;11.70;1.00;;;;;;6147114;23;20504;-80
2023/05/29 04:19:40;;;;;;;7.80;3.40;;;11.80;1.00;;;;;;6146610;23;20620;-80
2023/05/29 04:22:05;;;;;;;5.93;3.67;;;11.70;1.00;;;;;;6120296;23;20168;-79
2023/05/29 04:24:35;;;;;;;7.20;4.03;;;11.70;1.00;;;;;;6120608;23;20163;-81
2023/05/29 04:27:01;;;;;;;4.80;3.47;;;11.60;1.00;;;;;;6146358;23;20152;-82
2023/05/29 04:29:28;;;;;;;4.73;3.47;;;11.50;1.00;;;;;;6119990;23;20188;-80
2023/05/29 04:31:55;;;;;;;6.03;3.90;;;11.60;1.00;;;;;;6119967;23;20219;-79
2023/05/29 04:34:21;;;;;;;5.67;3.37;;;11.70;1.00;;;;;;6120486;23;20156;-82
2023/05/29 04:36:47;;;;;;;8.07;3.47;;;11.80;1.00;;;;;;6146323;23;20552;-80
2023/05/29 04:39:13;;;;;;;6.70;3.70;;;11.90;1.00;;;;;;6120160;23;20531;-79
2023/05/29 04:41:40;;;;;;;6.47;3.13;;;11.90;1.00;;;;;;6120644;23;20195;-79
2023/05/29 04:44:07;;;;;;;5.57;3.28;;;12.10;1.00;;;;;;6146466;23;20237;-79
2023/05/29 04:46:34;;;;;;;4.00;3.25;;;12.30;1.00;;;;;;6120207;23;20171;-83
2023/05/29 04:49:02;;;;;;;5.60;3.55;;;12.50;1.00;;;;;;6119719;23;20620;-79
2023/05/29 04:51:29;;;;;;;5.63;3.78;;;12.70;1.00;;;;;;6119658;23;20197;-80
2023/05/29 04:53:55;;;;;;;6.75;4.00;;;12.80;1.00;;;;;;6145403;23;20156;-83
2023/05/29 04:56:21;;;;;;;7.07;3.80;;;12.80;1.00;;;;;;6145904;23;20231;-80
2023/05/29 04:58:47;;;;;;;6.72;3.97;;;12.50;1.00;;;;;;6119443;23;20155;-82
2023/05/29 05:01:14;;;;;;;5.43;3.55;;;12.10;1.00;;;;;;6119710;23;20194;-80
2023/05/29 05:03:43;;;;;;;5.35;3.78;;;12.20;1.00;;;;;;6119616;23;20194;-80
2023/05/29 05:06:10;;;;;;;5.68;3.30;;;12.10;1.00;;;;;;6119765;23;20620;-81
2023/05/29 05:08:35;;;;;;;8.20;4.10;;;12.10;1.00;;;;;;6145756;23;20151;-80
2023/05/29 05:11:02;;;;;;;4.90;3.60;;;12.30;1.00;;;;;;6119499;23;20274;-80
2023/05/29 05:13:28;;;;;;;6.10;3.40;;;12.40;1.00;;;;;;6119507;23;20648;-80
2023/05/29 05:15:54;;;;;;;5.85;3.78;;;12.60;1.00;;;;;;6120007;23;20550;-81
2023/05/29 05:18:19;;;;;;;6.13;3.38;;;13.00;1.00;;;;;;6145435;23;20152;-80
2023/05/29 05:20:46;;;;;;;6.97;3.67;;;13.30;1.00;;;;;;6145479;23;20175;-79
2023/05/29 05:23:11;;;;;;;8.32;3.42;;;13.30;1.00;;;;;;6145685;23;20160;-80
2023/05/29 05:25:38;;;;;;;5.85;3.70;;;13.70;1.00;;;;;;6145595;23;20191;-81
2023/05/29 05:28:04;;;;;;;6.13;3.47;;;14.40;1.00;;;;;;6146042;23;20600;-80
2023/05/29 05:30:30;;;;;;;5.28;3.45;;;14.60;1.00;;;;;;6119084;23;20218;-80
2023/05/29 05:32:56;;;;;;;8.35;3.88;;;15.30;1.00;;;;;;6145982;23;20543;-81
2023/05/29 05:35:22;;;;;;;6.03;3.58;;;16.10;1.00;;;;;;6120404;23;20495;-81
2023/05/29 05:37:48;;;;;;;6.28;3.97;;;15.80;1.00;;;;;;6145576;23;20670;-83
2023/05/29 05:40:13;;;;;;;4.85;3.25;;;15.70;1.00;;;;;;6145612;23;20179;-80
2023/05/29 05:42:39;;;;;;;5.78;3.42;;;16.00;1.00;;;;;;6119992;23;20167;-80
2023/05/29 05:45:06;;;;;;;6.15;3.63;;;15.80;1.00;;;;;;6119709;23;20210;-80
2023/05/29 05:47:35;;;;;;;6.40;3.22;;;16.60;1.00;;;;;;6119568;23;20173;-80
2023/05/29 05:50:00;;;;;;;5.53;3.42;;;17.80;1.00;;;;;;6145072;23;20179;-84
2023/05/29 05:52:30;;;;;;;6.22;3.42;;;19.40;1.00;;;;;;6119215;23;20274;-80
2023/05/29 05:54:55;;;;;;;3.72;2.88;;;20.00;1.00;;;;;;6118986;23;20187;-80
2023/05/29 05:57:21;;;;;;;4.95;3.05;;;20.20;1.00;;;;;;6119060;23;20182;-81
2023/05/29 05:59:46;;;;;;;6.05;2.88;;;21.00;1.00;;;;;;6145579;23;20182;-80
2023/05/29 06:02:12;;;;;;;6.32;3.33;;;20.80;1.00;;;;;;6119406;23;20230;-80
2023/05/29 06:04:38;;;;;;;7.38;3.35;;;21.40;1.00;;;;;;6145771;23;20206;-80
2023/05/29 06:07:03;;;;;;;5.68;3.22;;;20.30;1.00;;;;;;6145209;23;20184;-79
2023/05/29 06:09:29;;;;;;;6.82;2.90;;;20.60;1.00;;;;;;6119120;23;20640;-79
2023/05/29 06:11:55;;;;;;;6.70;3.00;;;20.60;1.00;;;;;;6145058;23;20186;-81
2023/05/29 06:14:20;;;;;;;7.10;3.35;;;20.20;1.00;;;;;;6119232;23;20163;-82
2023/05/29 06:16:46;;;;;;;6.50;3.22;;;21.30;1.00;;;;;;6119063;23;20160;-80
2023/05/29 06:19:12;;;;;;;7.40;3.25;;;20.70;1.00;;;;;;6145319;23;20148;-83
2023/05/29 06:21:37;;;;;;;5.03;2.58;;;21.30;1.00;;;;;;6119242;23;20511;-80
2023/05/29 06:24:03;;;;;;;6.90;3.30;;;21.40;1.00;;;;;;6119260;23;20159;-80
2023/05/29 06:26:29;;;;;;;8.07;3.05;;;20.90;1.00;;;;;;6119422;23;20627;-80
2023/05/29 06:28:54;;;;;;;6.25;3.17;;;21.10;1.00;;;;;;6145207;23;20201;-83
2023/05/29 06:31:20;;;;;;;5.50;3.08;;;22.30;1.00;;;;;;6119004;23;20187;-79
2023/05/29 06:33:46;;;;;;;5.55;3.05;;;22.60;1.00;;;;;;6119135;23;20435;-81
2023/05/29 06:36:11;;;;;;;6.07;2.78;;;22.60;1.00;;;;;;6122229;23;20159;-83
2023/05/29 06:38:37;;;;;;;5.88;3.17;;;22.90;1.00;;;;;;6120405;23;20520;-84
2023/05/29 06:41:03;;;;;;;7.03;3.50;;;24.30;1.00;;;;;;6147182;23;20394;-82
2023/05/29 06:43:29;;;;;;;4.95;2.90;;;24.20;1.00;;;;;;6120826;23;20163;-80
2023/05/29 06:45:54;;;;;;;4.20;3.00;;;24.50;1.00;;;;;;6120781;23;20182;-80
2023/05/29 06:48:21;;;;;;;5.13;2.90;;;24.20;1.00;;;;;;6120902;23;20170;-80
2023/05/29 06:50:47;;;;;;;6.40;3.17;;;24.20;1.00;;;;;;6120460;23;20262;-80
2023/05/29 06:53:13;;;;;;;3.97;2.97;;;25.10;1.00;;;;;;6120734;23;20191;-80
2023/05/29 06:55:40;;;;;;;7.93;3.65;;;25.70;1.00;;;;;;6120522;23;20218;-80
2023/05/29 06:58:06;;;;;;;5.40;3.40;;;25.50;1.00;;;;;;6121523;23;20160;-80
2023/05/29 07:00:32;;;;;;;5.38;3.25;;;25.50;1.00;;;;;;6120826;23;20226;-80
2023/05/29 07:02:57;;;;;;;5.93;3.42;;;25.50;1.00;;;;;;6120620;23;20436;-80
2023/05/29 07:05:23;;;;;;;5.20;3.03;;;25.60;1.00;;;;;;6121208;23;20506;-80
2023/05/29 07:07:48;;;;;;;4.25;3.03;;;25.20;1.00;;;;;;6120656;23;20703;-80
2023/05/29 07:10:14;;;;;;;5.95;3.25;;;25.80;1.00;;;;;;6120558;23;20194;-79
2023/05/29 07:12:40;;;;;;;7.03;3.13;;;26.40;1.00;;;;;;6121829;23;20218;-80
2023/05/29 07:15:06;;;;;;;5.78;3.30;;;23.90;1.00;;;;;;6121062;23;20211;-79
2023/05/29 07:17:31;;;;;;;7.93;3.10;;;24.30;1.00;;;;;;6147227;23;20159;-79
2023/05/29 07:19:57;;;;;;;6.43;3.28;;;24.20;1.00;;;;;;6147549;23;20167;-82
2023/05/29 07:22:22;;;;;;;7.45;3.40;;;24.70;1.00;;;;;;6120383;23;20163;-81
2023/05/29 07:24:48;;;;;;;6.63;3.10;;;23.80;1.00;;;;;;6147408;23;20513;-79
2023/05/29 07:27:13;;;;;;;8.25;3.67;;;21.50;1.00;;;;;;6120450;23;20175;-81
2023/05/29 07:29:40;;;;;;;6.30;3.25;;;20.50;1.00;;;;;;6120603;23;20184;-83
2023/05/29 07:32:05;;;;;;;7.93;3.70;;;19.50;1.00;;;;;;6121135;23;20198;-80
2023/05/29 07:34:31;;;;;;;8.05;3.70;;;19.00;1.00;;;;;;6147530;23;20155;-81
2023/05/29 07:37:03;;;;;;;6.57;3.50;;;18.30;1.00;;;;;;6121037;23;20182;-81
2023/05/29 07:39:29;;;;;;;5.45;3.13;;;18.70;1.00;;;;;;6146387;23;20167;-80
2023/05/29 07:41:55;;;;;;;6.60;3.65;;;19.20;1.00;;;;;;6146786;23;20219;-81
2023/05/29 07:44:20;;;;;;;7.18;3.50;;;18.90;1.00;;;;;;6121114;23;20167;-80
2023/05/29 07:46:46;;;;;;;7.05;3.00;;;18.10;1.00;;;;;;6120726;23;20255;-79
2023/05/29 07:49:12;;;;;;;8.00;3.47;;;18.20;1.00;;;;;;6146829;23;20185;-83
2023/05/29 07:51:38;;;;;;;5.75;3.20;;;18.10;1.00;;;;;;6146984;23;20696;-81
2023/05/29 07:54:03;;;;;;;6.63;3.10;;;18.10;1.00;;;;;;6146547;23;20152;-80
2023/05/29 07:56:30;;;;;;;6.50;3.10;;;17.50;1.00;;;;;;6120355;23;20163;-80
2023/05/29 07:58:56;;;;;;;10.77;3.40;;;18.20;1.00;;;;;;6120509;23;20160;-80
2023/05/29 08:01:23;;;;;;;7.78;3.38;;;17.30;1.00;;;;;;6121658;23;20203;-81
2023/05/29 08:03:48;;;;;;;10.18;3.30;;;17.50;1.00;;;;;;6146722;23;20234;-80
2023/05/29 08:06:14;;;;;;;7.88;3.45;;;18.40;1.00;;;;;;6120308;23;20210;-83
2023/05/29 08:08:39;;;;;;;5.78;3.05;;;17.30;1.00;;;;;;6120047;23;20167;-81
2023/05/29 08:11:06;;;;;;;6.72;3.33;;;17.70;1.00;;;;;;6146273;23;20258;-80
2023/05/29 08:13:32;;;;;;;10.02;3.33;;;17.30;1.00;;;;;;6146623;23;20187;-80
2023/05/29 08:15:58;;;;;;;7.82;3.35;;;17.30;1.00;;;;;;6120810;23;20159;-80
2023/05/29 08:18:25;;;;;;;7.90;3.30;;;17.70;1.00;;;;;;6147640;23;20148;-81
2023/05/29 08:20:52;;;;;;;7.07;3.00;;;17.30;1.00;;;;;;6146415;23;20255;-82
2023/05/29 08:23:18;;;;;;;7.05;3.08;;;17.40;1.00;;;;;;6120352;23;20472;-80
2023/05/29 08:25:44;;;;;;;8.35;3.38;;;17.70;1.00;;;;;;6120620;23;20211;-80
2023/05/29 08:28:10;;;;;;;7.60;3.45;;;17.70;1.00;;;;;;6119916;23;20160;-80
2023/05/29 08:30:36;;;;;;;7.78;3.40;;;17.60;1.00;;;;;;6120434;23;20179;-80
2023/05/29 08:33:03;;;;;;;6.78;2.95;;;18.70;1.00;;;;;;6120425;23;20191;-80
2023/05/29 08:35:28;;;;;;;8.02;2.90;;;18.10;1.00;;;;;;6146103;23;20654;-80
2023/05/29 08:37:54;;;;;;;7.30;3.58;;;17.70;1.00;;;;;;6146608;23;20164;-80
2023/05/29 08:40:20;;;;;;;7.22;3.03;;;17.60;1.00;;;;;;6121309;23;20639;-80
2023/05/29 08:42:52;;;;;;;6.07;3.05;;;17.60;1.00;;;;;;6146458;23;20156;-81
2023/05/29 08:45:21;;;;;;;7.40;3.10;;;18.30;1.00;;;;;;6120378;23;20187;-83
2023/05/29 08:47:51;;;;;;;5.93;3.50;;;17.50;1.00;;;;;;6120543;23;20626;-80
2023/05/29 08:50:19;;;;;;;7.80;3.53;;;17.50;1.00;;;;;;6146233;23;20584;-80
2023/05/29 08:52:44;;;;;;;6.35;2.78;;;17.90;1.00;;;;;;6146605;23;20179;-80
2023/05/29 08:55:10;;;;;;;7.55;3.25;;;18.00;1.00;;;;;;6120841;23;20164;-81
2023/05/29 08:57:38;;;;;;;5.57;2.72;;;18.60;1.00;;;;;;6146303;23;20147;-80
2023/05/29 09:00:09;;;;;;;6.22;2.60;;;18.50;1.00;;;;;;6119918;23;20184;-81
2023/05/29 09:02:36;;;;;;;6.20;2.88;;;18.40;1.00;;;;;;6096967;23;20160;-80
2023/05/29 09:05:02;;;;;;;7.78;2.88;;;18.60;1.00;;;;;;6119604;23;20358;-80
2023/05/29 09:07:28;;;;;;;5.50;2.80;;;18.70;1.00;;;;;;6146244;23;20159;-80
2023/05/29 09:09:53;;;;;;;6.88;2.90;;;18.60;1.00;;;;;;6119388;23;20183;-80
2023/05/29 09:12:19;;;;;;;7.15;3.10;;;18.50;1.00;;;;;;6120234;23;20270;-83
2023/05/29 09:14:46;;;;;;;9.18;3.05;;;17.90;1.00;;;;;;6122517;23;20436;-82
2023/05/29 09:17:12;;;;;;;7.65;3.20;;;18.70;1.00;;;;;;6149230;23;20152;-80
2023/05/29 09:19:40;;;;;;;5.40;2.33;;;18.30;1.00;;;;;;6122745;23;20175;-80
2023/05/29 09:22:07;;;;;;;7.35;2.97;;;19.30;1.00;;;;;;6147779;23;20156;-81
2023/05/29 09:24:33;;;;;;;7.65;3.33;;;19.10;1.00;;;;;;6119702;23;20167;-80
2023/05/29 09:27:00;;;;;;;6.57;3.13;;;19.20;1.00;;;;;;6119937;23;20187;-81
2023/05/29 09:29:27;;;;;;;7.38;3.20;;;18.60;1.00;;;;;;6119357;23;20187;-81
2023/05/29 09:31:52;;;;;;;8.23;3.20;;;19.20;1.00;;;;;;6119598;23;20572;-80
2023/05/29 09:34:18;;;;;;;6.55;2.60;;;18.50;1.00;;;;;;6119946;23;20163;-80
2023/05/29 09:36:44;;;;;;;5.55;3.13;;;18.70;1.00;;;;;;6145664;23;20242;-80
2023/05/29 09:39:10;;;;;;;6.22;2.47;;;19.20;1.00;;;;;;6119894;23;20503;-80
2023/05/29 09:41:43;;;;;;;5.97;2.30;;;18.60;1.00;;;;;;6119051;23;20160;-83
2023/05/29 09:44:13;;;;;;;4.97;2.42;;;18.60;1.00;;;;;;6145839;23;20150;-81
2023/05/29 09:46:39;;;;;;;7.10;3.03;;;19.00;1.00;;;;;;6119737;23;20156;-80
2023/05/29 09:49:12;;;;;;;5.55;2.75;;;18.90;1.00;;;;;;6119166;23;20484;-80
2023/05/29 09:51:38;;;;;;;6.82;2.42;;;19.20;1.00;;;;;;6145750;23;20140;-80
2023/05/29 09:54:17;;;;;;;6.18;2.58;;;19.40;1.00;;;;;;6145653;23;20397;-79
2023/05/29 09:56:44;;;;;;;4.80;2.40;;;19.00;1.00;;;;;;6119540;23;20163;-84
2023/05/29 09:59:15;;;;;;;6.88;2.72;;;19.60;1.00;;;;;;6145114;23;20152;-79
2023/05/29 10:01:43;;;;;;;6.57;2.55;;;19.70;1.00;;;;;;6120271;23;20615;-81
2023/05/29 10:04:10;;;;;;;6.32;3.03;;;19.10;1.00;;;;;;6120201;23;20190;-82
2023/05/29 10:06:38;;;;;;;7.63;2.83;;;18.60;1.00;;;;;;6120083;23;20162;-80
2023/05/29 10:09:05;;;;;;;5.00;2.13;;;18.80;1.00;;;;;;6118872;23;20524;-80
2023/05/29 10:11:32;;;;;;;5.90;2.60;;;18.90;1.00;;;;;;6121617;23;20163;-82
2023/05/29 10:14:00;;;;;;;5.43;2.53;;;19.00;1.00;;;;;;6122168;23;20190;-81
2023/05/29 10:16:27;;;;;;;4.95;2.70;;;18.70;1.00;;;;;;6148072;23;20210;-83
2023/05/29 10:18:57;;;;;;;3.22;2.00;;;19.10;1.00;;;;;;6148612;23;20388;-80
2023/05/29 10:21:26;;;;;;;6.25;2.63;;;19.20;1.00;;;;;;6148613;23;20226;-83
2023/05/29 10:23:54;;;;;;;6.43;2.00;;;19.40;1.00;;;;;;6121704;23;20167;-83
2023/05/29 10:26:28;;;;;;;4.57;1.90;;;20.00;1.00;;;;;;6147162;23;20551;-80
2023/05/29 10:29:15;;;;;;;5.25;2.00;;;19.60;1.00;;;;;;6147893;23;20231;-83
2023/05/29 10:32:06;;;;;;;5.95;2.35;;;19.60;1.00;;;;;;6148029;23;20494;-84
2023/05/29 10:34:56;;;;;;;3.60;2.10;;;19.80;1.00;;;;;;6148311;23;20147;-82
2023/05/29 10:37:33;;;;;;;5.32;2.20;;;19.80;1.00;;;;;;6147225;23;20222;-83
2023/05/29 10:40:07;;;;;;;5.95;2.63;;;20.00;1.00;;;;;;6147868;23;20182;-79
2023/05/29 10:42:38;;;;;;;3.83;2.10;;;20.00;1.00;;;;;;6122111;23;20685;-80
2023/05/29 10:45:04;;;;;;;4.05;2.05;;;19.70;1.00;;;;;;6122219;23;20174;-80
2023/05/29 10:47:30;;;;;;;3.42;1.90;;;19.80;1.00;;;;;;6122094;23;20422;-80
2023/05/29 10:50:00;;;;;;;4.03;2.08;;;20.60;1.00;;;;;;6148647;23;20199;-80
2023/05/29 10:52:26;;;;;;;5.63;2.40;;;20.30;1.00;;;;;;6122390;23;20191;-79
2023/05/29 10:54:54;;;;;;;4.20;2.00;;;20.30;1.00;;;;;;6148007;23;20179;-81
2023/05/29 10:57:23;;;;;;;4.30;2.20;;;20.40;1.00;;;;;;6148131;23;20185;-80
2023/05/29 11:00:12;;;;;;;4.38;2.00;;;20.10;1.00;;;;;;6148099;23;20306;-84
2023/05/29 11:02:39;;;;;;;5.32;2.17;;;20.50;1.00;;;;;;6121290;23;20159;-82
2023/05/29 11:05:25;;;;;;;4.15;2.17;;;20.30;1.00;;;;;;6121288;23;20167;-80
2023/05/29 11:07:56;;;;;;;5.63;2.08;;;20.30;1.00;;;;;;6120990;23;20182;-82
2023/05/29 11:10:43;;;;;;;4.18;2.17;;;20.60;1.00;;;;;;6147525;23;20186;-79
2023/05/29 11:13:09;;;;;;;4.05;2.00;;;20.10;1.00;;;;;;6147676;23;20175;-83
2023/05/29 11:15:36;;;;;;;3.92;2.15;;;20.30;1.00;;;;;;6121729;23;20164;-80
2023/05/29 11:18:06;;;;;;;5.93;2.47;;;19.90;1.00;;;;;;6121805;23;20612;-79
2023/05/29 11:20:57;;;;;;;3.83;2.15;;;20.00;1.00;;;;;;6121455;23;20179;-80
2023/05/29 11:23:25;;;;;;;5.80;2.40;;;19.70;1.00;;;;;;6122063;23;20504;-81
2023/05/29 11:25:51;;;;;;;4.25;2.20;;;20.10;1.00;;;;;;6121798;23;20163;-80
2023/05/29 11:28:16;;;;;;;3.42;2.17;;;19.80;1.00;;;;;;6121413;23;20171;-80
2023/05/29 11:30:44;;;;;;;5.85;2.63;;;19.80;1.00;;;;;;6121565;23;20188;-80
2023/05/29 11:33:19;;;;;;;3.70;1.83;;;19.40;1.00;;;;;;6122180;23;20183;-80
2023/05/29 11:35:46;;;;;;;4.90;2.40;;;20.40;1.00;;;;;;6121988;23;20147;-80
2023/05/29 11:38:11;;;;;;;4.22;1.88;;;20.00;1.00;;;;;;6121671;23;20186;-80
2023/05/29 11:40:40;;;;;;;2.60;1.90;;;20.30;1.00;;;;;;6122344;23;20258;-82
2023/05/29 11:43:05;;;;;;;3.70;2.10;;;21.10;1.00;;;;;;6122140;23;20259;-84
2023/05/29 11:45:34;;;;;;;5.13;2.30;;;21.40;1.00;;;;;;6122234;23;20675;-81
2023/05/29 11:48:02;;;;;;;2.92;1.90;;;20.90;1.00;;;;;;6121480;23;20195;-80
2023/05/29 11:50:30;;;;;;;4.05;2.03;;;20.70;1.00;;;;;;6120802;23;20215;-80
2023/05/29 11:52:57;;;;;;;5.70;2.47;;;20.10;1.00;;;;;;6120933;23;20652;-79
2023/05/29 11:55:23;;;;;;;5.03;2.58;;;20.00;1.00;;;;;;6148191;23;20183;-80
2023/05/29 11:57:50;;;;;;;5.78;2.47;;;19.80;1.00;;;;;;6146976;23;20156;-81
2023/05/29 12:00:18;;;;;;;4.88;2.30;;;20.50;1.00;;;;;;6121006;23;20666;-79
2023/05/29 12:02:46;;;;;;;5.55;2.75;;;19.80;1.00;;;;;;6146798;23;20152;-79
2023/05/29 12:05:14;;;;;;;4.68;2.38;;;19.60;1.00;;;;;;6147027;23;20163;-80
2023/05/29 12:07:52;;;;;;;4.50;2.03;;;19.70;1.00;;;;;;6147448;23;20607;-80
2023/05/29 12:10:20;;;;;;;5.68;2.25;;;19.90;1.00;;;;;;6146235;23;20175;-80
2023/05/29 12:12:52;;;;;;;4.50;2.35;;;20.00;1.00;;;;;;6120971;23;20659;-83
2023/05/29 12:15:18;;;;;;;4.93;2.42;;;20.10;1.00;;;;;;6147425;23;20388;-82
2023/05/29 12:17:45;;;;;;;3.88;2.30;;;20.10;1.00;;;;;;6121088;23;20277;-82
2023/05/29 12:20:12;;;;;;;4.80;2.35;;;20.20;1.00;;;;;;6120267;23;20184;-81
2023/05/29 12:22:40;;;;;;;6.47;2.40;;;20.30;1.00;;;;;;6147192;23;20164;-80
2023/05/29 12:25:07;;;;;;;4.93;2.60;;;20.40;1.00;;;;;;6147439;23;20712;-79
2023/05/29 12:27:37;;;;;;;7.15;2.42;;;20.60;1.00;;;;;;6146457;23;20164;-80
2023/05/29 12:30:03;;;;;;;7.45;2.35;;;21.50;1.00;;;;;;6120476;23;20191;-82
2023/05/29 12:32:40;;;;;;;5.35;2.28;;;20.40;1.00;;;;;;6120116;23;20254;-82
2023/05/29 12:35:17;;;;;;;3.33;1.80;;;20.30;1.00;;;;;;6146575;23;20147;-80
2023/05/29 12:38:05;;;;;;;5.28;2.55;;;20.00;1.00;;;;;;6147274;23;20182;-80
2023/05/29 12:40:39;;;;;;;3.60;2.10;;;20.00;1.00;;;;;;6120818;23;20203;-82
2023/05/29 12:43:11;;;;;;;3.47;2.20;;;20.40;1.00;;;;;;6121316;23;20151;-80
2023/05/29 12:45:37;;;;;;;4.90;2.22;;;20.40;1.00;;;;;;6121551;23;20152;-83
2023/05/29 12:48:05;;;;;;;3.30;2.20;;;20.90;1.00;;;;;;6121223;23;20164;-80
2023/05/29 12:50:32;;;;;;;5.50;2.20;;;21.10;1.00;;;;;;6146764;23;20179;-80
2023/05/29 12:53:03;;;;;;;4.88;2.15;;;21.10;1.00;;;;;;6121567;23;20188;-81
2023/05/29 12:55:36;;;;;;;4.95;2.30;;;21.20;1.00;;;;;;6119797;23;20559;-81
2023/05/29 12:58:03;;;;;;;5.47;2.15;;;21.10;1.00;;;;;;6121434;23;20156;-80
2023/05/29 13:00:30;;;;;;;6.43;2.63;;;21.50;1.00;;;;;;6119974;23;20179;-79